Time;durP1;ratioP1;P1;durP2;ratioP2;P2;SDS_P1;SDS_P2;PMS_P1;PMS_P2;Temp;Humidity;BMP_temperature;BMP_pressure;BME280_temperature;BME280_humidity;BME280_pressure;Samples;Min_cycle;Max_cycle;Signal;HPM_P1;HPM_P2
2021/07/29 00:02:02;;;;;;;5.40;2.13;;;;;;;15.21;88.58;100716.50;5095866;28;20023;-84
2021/07/29 00:04:28;;;;;;;4.07;2.13;;;;;;;15.29;88.70;100717.22;5079460;28;20042;-85
2021/07/29 00:06:54;;;;;;;3.60;2.00;;;;;;;15.38;87.83;100718.81;5078754;28;20031;-83
2021/07/29 00:09:20;;;;;;;5.53;2.15;;;;;;;15.50;87.87;100719.22;5075267;28;20028;-83
2021/07/29 00:11:45;;;;;;;5.30;3.17;;;;;;;15.50;87.25;100706.00;5098996;28;20034;-83
2021/07/29 00:14:11;;;;;;;3.95;2.13;;;;;;;15.55;87.01;100716.84;5061040;28;20529;-84
2021/07/29 00:16:50;;;;;;;3.65;2.15;;;;;;;15.54;87.64;100706.47;5077994;28;20035;-83
2021/07/29 00:19:15;;;;;;;5.65;2.25;;;;;;;15.54;87.47;100712.56;5061578;28;20036;-82
2021/07/29 00:21:41;;;;;;;4.32;2.13;;;;;;;15.53;87.40;100707.47;5074729;28;20032;-86
2021/07/29 00:24:07;;;;;;;3.70;2.28;;;;;;;15.52;86.70;100706.66;5058208;28;20513;-83
2021/07/29 00:26:32;;;;;;;5.45;2.53;;;;;;;15.52;86.57;100706.66;5077523;28;20028;-83
2021/07/29 00:29:00;;;;;;;5.15;2.45;;;;;;;15.58;86.17;100699.81;5077430;28;20043;-83
2021/07/29 00:31:33;;;;;;;5.47;2.80;;;;;;;15.54;86.16;100696.72;5093855;28;20076;-84
2021/07/29 00:33:59;;;;;;;7.45;2.60;;;;;;;15.49;86.20;100690.31;5056885;28;20039;-82
2021/07/29 00:36:25;;;;;;;6.32;2.35;;;;;;;15.50;86.29;100691.94;5068619;28;20031;-84
2021/07/29 00:38:59;;;;;;;8.30;2.58;;;;;;;15.53;86.10;100696.88;5063315;27;20043;-83
2021/07/29 00:41:25;;;;;;;5.35;2.10;;;;;;;15.45;86.31;100681.13;5092519;28;20474;-81
2021/07/29 00:44:01;;;;;;;3.58;2.20;;;;;;;15.42;86.25;100682.28;5054643;28;20032;-83
2021/07/29 00:46:28;;;;;;;6.20;2.22;;;;;;;15.41;86.19;100679.81;5091161;28;20043;-83
2021/07/29 00:48:55;;;;;;;6.28;2.40;;;;;;;15.40;86.43;100686.91;5071671;28;20463;-83
2021/07/29 00:51:21;;;;;;;3.53;2.22;;;;;;;15.35;86.64;100678.69;5075002;28;20031;-81
2021/07/29 00:53:47;;;;;;;5.25;2.40;;;;;;;15.29;87.07;100671.50;5094048;28;20123;-85
2021/07/29 00:56:13;;;;;;;5.13;2.67;;;;;;;15.22;87.16;100674.06;5084810;28;20107;-86
2021/07/29 00:58:38;;;;;;;6.07;2.40;;;;;;;15.27;87.05;100668.22;5074472;28;20036;-84
2021/07/29 01:01:04;;;;;;;4.80;2.30;;;;;;;15.21;86.46;100659.19;5093543;28;20488;-81
2021/07/29 01:03:29;;;;;;;3.38;1.80;;;;;;;15.22;86.58;100662.63;5076971;28;20385;-84
2021/07/29 01:05:56;;;;;;;6.20;2.50;;;;;;;15.26;86.64;100666.59;5074524;28;20031;-84
2021/07/29 01:08:21;;;;;;;7.25;2.38;;;;;;;15.19;86.30;100669.94;5074566;28;20705;-85
2021/07/29 01:10:47;;;;;;;4.32;2.20;;;;;;;15.13;86.62;100665.34;5072312;28;20019;-86
2021/07/29 01:13:12;;;;;;;7.60;2.22;;;;;;;15.16;86.15;100672.09;5064754;28;20039;-83
2021/07/29 01:15:38;;;;;;;5.47;2.35;;;;;;;15.02;86.91;100657.88;5058829;28;20032;-84
2021/07/29 01:18:04;;;;;;;6.30;2.13;;;;;;;15.09;86.52;100656.16;5082102;28;20466;-85
2021/07/29 01:20:30;;;;;;;6.43;2.63;;;;;;;15.12;85.76;100652.31;5075927;28;20028;-85
2021/07/29 01:22:56;;;;;;;7.93;2.53;;;;;;;15.07;86.12;100658.16;5057163;28;20032;-85
2021/07/29 01:25:21;;;;;;;5.35;2.40;;;;;;;15.06;86.21;100650.41;5073379;28;20028;-82
2021/07/29 01:27:47;;;;;;;4.70;2.45;;;;;;;15.02;86.57;100647.28;5068415;28;20085;-85
2021/07/29 01:30:13;;;;;;;3.45;2.20;;;;;;;15.10;85.59;100636.66;5074307;28;20594;-85
2021/07/29 01:32:39;;;;;;;4.18;1.98;;;;;;;15.15;84.97;100631.66;5082604;28;20552;-82
2021/07/29 01:35:08;;;;;;;3.42;2.20;;;;;;;15.18;85.14;100633.09;5077095;28;20044;-83
2021/07/29 01:37:35;;;;;;;5.35;2.40;;;;;;;15.22;84.79;100638.84;5068475;28;20035;-84
2021/07/29 01:40:00;;;;;;;3.05;2.00;;;;;;;15.25;84.35;100633.22;5071940;28;20036;-85
2021/07/29 01:42:26;;;;;;;3.50;2.38;;;;;;;15.27;84.04;100623.28;5060483;28;20035;-83
2021/07/29 01:44:51;;;;;;;3.78;2.05;;;;;;;15.26;83.94;100630.41;5092115;28;20048;-88
2021/07/29 01:47:17;;;;;;;4.57;2.03;;;;;;;15.21;83.95;100608.16;5076957;28;20028;-80
2021/07/29 01:49:42;;;;;;;4.63;2.40;;;;;;;15.22;83.98;100615.06;5067280;28;20046;-82
2021/07/29 01:52:10;;;;;;;7.20;2.08;;;;;;;15.16;84.50;100606.06;5093914;28;20066;-84
2021/07/29 01:54:36;;;;;;;6.20;2.33;;;;;;;15.14;84.34;100613.34;5079250;28;20035;-83
2021/07/29 01:57:04;;;;;;;4.68;2.50;;;;;;;15.16;83.89;100614.81;5081863;28;20108;-85
2021/07/29 01:59:34;;;;;;;4.93;2.20;;;;;;;15.17;84.03;100611.16;5070008;28;20038;-84
2021/07/29 02:01:59;;;;;;;3.47;2.10;;;;;;;15.11;84.48;100619.00;5073543;28;20501;-84
2021/07/29 02:04:25;;;;;;;3.38;2.38;;;;;;;15.10;83.87;100615.50;5072414;28;20051;-85
2021/07/29 02:06:50;;;;;;;5.22;2.47;;;;;;;15.12;83.64;100617.97;5074725;28;20031;-84
2021/07/29 02:09:16;;;;;;;4.47;2.20;;;;;;;15.03;84.11;100614.63;5054948;28;20028;-84
2021/07/29 02:11:49;;;;;;;3.67;1.90;;;;;;;14.98;84.79;100612.50;5079494;28;20027;-84
2021/07/29 02:14:17;;;;;;;4.15;2.15;;;;;;;14.91;84.67;100606.28;5076364;28;20044;-83
2021/07/29 02:16:43;;;;;;;7.32;2.45;;;;;;;14.90;84.08;100620.50;5064644;28;20513;-85
2021/07/29 02:19:08;;;;;;;3.05;2.22;;;;;;;14.83;84.21;100600.25;5062626;28;20063;-83
2021/07/29 02:21:34;;;;;;;6.40;2.80;;;;;;;14.82;83.89;100596.78;5080801;28;20119;-85
2021/07/29 02:23:59;;;;;;;4.38;2.25;;;;;;;14.88;84.29;100608.44;5079970;28;20038;-85
2021/07/29 02:26:25;;;;;;;4.65;2.40;;;;;;;14.93;83.93;100603.47;5079961;28;20035;-84
2021/07/29 02:28:50;;;;;;;8.10;2.50;;;;;;;14.94;83.80;100600.66;5077819;28;20038;-84
2021/07/29 02:31:16;;;;;;;4.57;2.30;;;;;;;15.01;83.72;100600.75;5079236;28;20594;-87
2021/07/29 02:33:42;;;;;;;3.63;2.03;;;;;;;15.12;82.54;100610.06;5075196;28;20044;-83
2021/07/29 02:36:07;;;;;;;6.20;2.60;;;;;;;15.11;82.85;100606.59;5077094;28;20400;-80
2021/07/29 02:38:33;;;;;;;4.10;2.13;;;;;;;15.08;83.15;100598.22;5065817;28;20061;-84
2021/07/29 02:40:59;;;;;;;3.85;2.40;;;;;;;15.17;82.70;100600.59;5060842;28;20036;-83
2021/07/29 02:43:24;;;;;;;8.57;2.78;;;;;;;15.14;82.77;100590.41;5093130;28;20020;-84
2021/07/29 02:45:50;;;;;;;5.90;2.30;;;;;;;15.16;83.03;100588.41;5073892;28;20039;-81
2021/07/29 02:48:15;;;;;;;4.45;2.40;;;;;;;15.21;83.21;100592.31;5065742;28;20042;-81
2021/07/29 02:50:41;;;;;;;3.88;2.47;;;;;;;15.27;82.50;100594.22;5061348;28;20095;-84
2021/07/29 02:53:06;;;;;;;4.15;2.67;;;;;;;15.26;82.41;100589.97;5081710;28;20036;-84
2021/07/29 02:55:32;;;;;;;9.32;2.72;;;;;;;15.27;82.23;100584.47;5077954;28;20161;-85
2021/07/29 02:57:57;;;;;;;6.72;2.65;;;;;;;15.28;82.54;100577.38;5076792;28;20035;-83
2021/07/29 03:00:23;;;;;;;5.68;2.38;;;;;;;15.32;82.43;100574.19;5075179;28;20032;-85
2021/07/29 03:02:48;;;;;;;4.82;2.67;;;;;;;15.30;82.37;100559.53;5076692;28;20035;-86
2021/07/29 03:05:14;;;;;;;5.07;2.47;;;;;;;15.28;82.42;100564.19;5079330;28;20028;-86
2021/07/29 03:07:39;;;;;;;5.20;2.70;;;;;;;15.27;82.85;100579.19;5080220;28;20024;-84
2021/07/29 03:10:05;;;;;;;4.35;2.55;;;;;;;15.32;82.96;100582.13;5068123;28;20047;-85
2021/07/29 03:12:31;;;;;;;3.85;2.47;;;;;;;15.27;82.61;100589.75;5060244;28;20032;-87
2021/07/29 03:14:56;;;;;;;6.55;2.80;;;;;;;15.31;83.08;100584.94;5079411;28;20039;-83
2021/07/29 03:17:22;;;;;;;6.05;2.17;;;;;;;15.41;81.80;100587.31;5077671;28;20062;-83
2021/07/29 03:19:47;;;;;;;3.60;2.42;;;;;;;15.50;82.60;100588.84;5063309;28;20076;-84
2021/07/29 03:22:13;;;;;;;2.70;2.45;;;;;;;15.62;80.94;100584.75;5107460;28;20023;-84
2021/07/29 03:24:38;;;;;;;4.63;2.67;;;;;;;15.68;79.59;100585.84;5062100;28;20054;-81
2021/07/29 03:27:04;;;;;;;4.85;2.35;;;;;;;15.71;80.39;100598.72;5062656;28;20024;-84
2021/07/29 03:29:29;;;;;;;5.00;2.55;;;;;;;15.76;81.18;100593.72;5083057;28;20156;-84
2021/07/29 03:31:55;;;;;;;3.65;2.40;;;;;;;15.72;80.23;100576.53;5055584;28;20043;-85
2021/07/29 03:34:21;;;;;;;4.13;2.42;;;;;;;15.80;79.41;100583.59;5062418;28;20039;-84
2021/07/29 03:36:47;;;;;;;3.67;2.35;;;;;;;15.86;80.04;100582.84;5079124;28;20036;-84
2021/07/29 03:39:12;;;;;;;4.22;2.30;;;;;;;15.90;79.12;100589.41;5079068;28;20034;-85
2021/07/29 03:41:38;;;;;;;4.25;2.00;;;;;;;15.91;79.41;100578.63;5070102;28;20486;-82
2021/07/29 03:44:04;;;;;;;3.58;2.47;;;;;;;15.89;79.23;100588.59;5054717;28;20038;-82
2021/07/29 03:46:29;;;;;;;3.63;2.17;;;;;;;15.91;79.01;100591.84;5077134;28;20508;-83
2021/07/29 03:48:57;;;;;;;7.60;2.60;;;;;;;15.96;78.80;100596.63;5096067;28;20158;-84
2021/07/29 03:51:22;;;;;;;2.80;2.28;;;;;;;15.98;79.07;100588.50;5062106;28;20043;-86
2021/07/29 03:53:48;;;;;;;2.75;2.17;;;;;;;15.98;78.94;100584.00;5061665;28;20501;-82
2021/07/29 03:56:13;;;;;;;3.35;2.00;;;;;;;16.03;78.23;100594.03;5075743;28;20041;-85
2021/07/29 03:58:38;;;;;;;3.80;2.60;;;;;;;16.01;78.59;100590.75;5079443;28;20038;-82
2021/07/29 04:01:07;;;;;;;3.78;2.25;;;;;;;16.02;77.73;100593.22;5078555;28;20030;-85
2021/07/29 04:03:32;;;;;;;3.55;2.40;;;;;;;16.02;78.07;100593.22;5078511;28;20027;-82
2021/07/29 04:05:58;;;;;;;5.10;2.30;;;;;;;16.07;77.87;100601.41;5088349;28;20081;-83
2021/07/29 04:08:23;;;;;;;5.63;2.40;;;;;;;16.08;77.75;100600.41;5077980;28;20041;-83
2021/07/29 04:10:49;;;;;;;3.95;2.17;;;;;;;16.06;77.93;100585.72;5051344;28;20565;-83
2021/07/29 04:13:14;;;;;;;3.78;2.40;;;;;;;16.14;78.00;100591.75;5076245;28;20046;-84
2021/07/29 04:15:40;;;;;;;4.22;2.22;;;;;;;16.18;78.02;100594.84;5058187;28;20032;-84
2021/07/29 04:18:05;;;;;;;4.93;2.35;;;;;;;16.17;77.87;100587.88;5056136;28;20440;-82
2021/07/29 04:20:31;;;;;;;4.88;2.45;;;;;;;16.17;77.69;100590.53;5071564;28;20047;-82
2021/07/29 04:22:56;;;;;;;5.63;2.15;;;;;;;16.13;77.45;100594.56;5078449;28;20035;-81
2021/07/29 04:25:22;;;;;;;6.07;2.20;;;;;;;16.23;77.13;100600.38;5073512;28;20110;-82
2021/07/29 04:27:47;;;;;;;4.65;2.20;;;;;;;16.24;77.34;100606.50;5060902;28;20028;-82
2021/07/29 04:30:14;;;;;;;3.13;1.90;;;;;;;16.24;78.32;100617.91;5078042;28;20035;-83
2021/07/29 04:32:40;;;;;;;7.40;2.20;;;;;;;16.23;78.38;100618.06;5059696;28;20045;-83
2021/07/29 04:35:06;;;;;;;7.63;2.25;;;;;;;16.25;76.95;100616.06;5080349;28;20031;-86
2021/07/29 04:37:33;;;;;;;8.52;2.20;;;;;;;16.29;77.70;100612.88;5060376;28;20036;-86
2021/07/29 04:39:58;;;;;;;5.43;2.20;;;;;;;16.29;76.95;100617.31;5069357;28;20071;-83
2021/07/29 04:42:24;;;;;;;5.82;2.33;;;;;;;16.34;76.95;100613.09;5083811;28;20083;-83
2021/07/29 04:44:49;;;;;;;13.45;2.10;;;;;;;16.41;76.47;100610.53;5068150;28;20030;-84
2021/07/29 04:47:16;;;;;;;4.25;2.30;;;;;;;16.37;78.40;100595.22;5076191;28;20037;-82
2021/07/29 04:49:42;;;;;;;6.57;2.50;;;;;;;16.40;77.47;100605.44;5076401;28;20526;-85
2021/07/29 04:52:08;;;;;;;4.63;2.50;;;;;;;16.31;77.35;100594.13;5080168;28;20041;-80
2021/07/29 04:54:33;;;;;;;8.90;2.28;;;;;;;16.27;78.07;100600.81;5083849;28;20040;-83
2021/07/29 04:56:59;;;;;;;5.25;2.55;;;;;;;16.32;77.02;100606.38;5074614;28;20039;-80
2021/07/29 04:59:25;;;;;;;4.70;2.22;;;;;;;16.35;77.78;100608.66;5076812;28;20043;-84
2021/07/29 05:01:50;;;;;;;5.55;2.35;;;;;;;16.32;78.19;100599.25;5075586;28;20031;-81
2021/07/29 05:04:16;;;;;;;3.95;2.42;;;;;;;16.32;77.10;100603.72;5053722;28;20034;-83
2021/07/29 05:06:42;;;;;;;6.30;2.28;;;;;;;16.33;77.70;100608.00;5071018;28;20123;-82
2021/07/29 05:09:09;;;;;;;6.07;2.47;;;;;;;16.39;77.62;100617.84;5045063;28;20068;-83
2021/07/29 05:11:35;;;;;;;4.00;2.25;;;;;;;16.34;78.03;100623.69;5067160;28;20028;-83
2021/07/29 05:14:01;;;;;;;4.85;2.33;;;;;;;16.35;78.25;100614.75;5059658;28;20065;-84
2021/07/29 05:16:26;;;;;;;5.82;2.55;;;;;;;16.45;77.85;100613.63;5060551;28;20095;-81
2021/07/29 05:18:52;;;;;;;6.93;1.95;;;;;;;16.43;77.18;100607.72;5073164;28;20042;-84
2021/07/29 05:21:18;;;;;;;6.13;2.92;;;;;;;16.38;76.39;100592.38;5060756;28;20605;-85
2021/07/29 05:23:43;;;;;;;9.35;2.53;;;;;;;16.54;77.10;100601.91;5075472;28;20081;-80
2021/07/29 05:26:18;;;;;;;6.72;2.40;;;;;;;16.61;75.82;100602.78;5092573;28;20036;-80
2021/07/29 05:28:44;;;;;;;3.58;2.50;;;;;;;16.75;75.87;100601.09;5089186;28;20035;-80
2021/07/29 05:31:10;;;;;;;3.63;2.10;;;;;;;16.79;75.24;100596.22;5090991;28;20085;-80
2021/07/29 05:33:38;;;;;;;3.95;2.30;;;;;;;16.79;74.85;100594.41;5078678;28;20023;-81
2021/07/29 05:36:04;;;;;;;5.70;2.60;;;;;;;16.79;76.04;100607.63;5076506;28;20027;-83
2021/07/29 05:38:30;;;;;;;6.68;2.58;;;;;;;16.91;76.91;100605.31;5090085;28;20471;-79
2021/07/29 05:40:58;;;;;;;4.38;2.30;;;;;;;17.03;76.73;100606.44;5093887;28;20040;-81
2021/07/29 05:43:26;;;;;;;7.88;2.30;;;;;;;16.98;76.68;100600.91;5093946;28;20059;-82
2021/07/29 05:45:51;;;;;;;5.25;2.60;;;;;;;16.95;76.58;100595.16;5093907;28;20028;-81
2021/07/29 05:48:17;;;;;;;7.18;2.50;;;;;;;16.88;76.85;100600.41;5083373;28;20031;-81
2021/07/29 05:50:42;;;;;;;5.53;2.35;;;;;;;16.98;76.65;100597.44;5060558;28;20027;-84
2021/07/29 05:53:08;;;;;;;3.30;2.50;;;;;;;17.10;75.31;100593.22;5079824;28;20028;-82
2021/07/29 05:55:34;;;;;;;7.20;2.40;;;;;;;17.25;73.88;100598.44;5058107;28;20040;-83
2021/07/29 05:58:00;;;;;;;5.18;2.03;;;;;;;17.36;73.62;100589.94;5067606;28;20036;-83
2021/07/29 06:00:26;;;;;;;5.57;2.05;;;;;;;17.39;72.05;100581.59;5072636;28;20050;-82
2021/07/29 06:02:52;;;;;;;5.88;2.22;;;;;;;17.47;71.45;100592.03;5094740;28;20031;-83
2021/07/29 06:05:17;;;;;;;8.02;2.30;;;;;;;17.59;70.12;100583.53;5074242;28;20401;-83
2021/07/29 06:07:43;;;;;;;4.25;2.00;;;;;;;17.64;69.51;100584.59;5060565;28;20088;-85
2021/07/29 06:10:10;;;;;;;5.53;1.80;;;;;;;17.75;69.83;100593.00;5057087;28;20463;-88
2021/07/29 06:12:36;;;;;;;5.75;2.00;;;;;;;17.80;69.09;100594.06;5074775;28;20042;-84
2021/07/29 06:15:02;;;;;;;6.95;2.22;;;;;;;17.89;70.50;100594.72;5093852;28;20027;-85
2021/07/29 06:17:31;;;;;;;4.75;2.03;;;;;;;17.99;69.98;100599.66;5074957;28;20034;-85
2021/07/29 06:19:56;;;;;;;6.97;2.17;;;;;;;18.02;69.68;100594.75;5062373;28;20508;-84
2021/07/29 06:22:22;;;;;;;5.93;1.95;;;;;;;18.19;68.28;100591.75;5094444;28;20035;-83
2021/07/29 06:24:48;;;;;;;4.28;2.10;;;;;;;18.33;70.60;100597.91;5085333;28;20032;-83
2021/07/29 06:27:13;;;;;;;2.35;1.70;;;;;;;18.35;68.04;100604.66;5071680;28;20442;-82
2021/07/29 06:29:39;;;;;;;6.47;1.90;;;;;;;18.32;68.65;100604.25;5077469;28;20032;-82
2021/07/29 06:32:05;;;;;;;10.05;2.00;;;;;;;18.31;67.54;100594.63;5077591;28;20042;-82
2021/07/29 06:34:30;;;;;;;6.95;1.92;;;;;;;18.34;68.64;100607.53;5076684;28;20433;-83
2021/07/29 06:36:56;;;;;;;8.75;2.33;;;;;;;18.48;66.92;100611.84;5094078;28;20130;-83
2021/07/29 06:39:21;;;;;;;9.77;2.03;;;;;;;18.60;66.58;100609.41;5059690;28;20044;-81
2021/07/29 06:41:47;;;;;;;8.75;1.98;;;;;;;18.67;66.34;100603.06;5077105;28;20028;-82
2021/07/29 06:44:12;;;;;;;6.88;2.10;;;;;;;18.68;67.79;100606.53;5076941;28;20035;-83
2021/07/29 06:46:38;;;;;;;7.43;2.00;;;;;;;18.64;66.47;100608.78;5060526;28;20059;-81
2021/07/29 06:49:05;;;;;;;8.32;2.25;;;;;;;18.56;68.82;100603.69;5059478;28;20042;-82
2021/07/29 06:51:34;;;;;;;9.38;1.98;;;;;;;18.60;66.98;100617.38;5046192;28;20327;-83
2021/07/29 06:54:00;;;;;;;7.30;2.03;;;;;;;18.54;67.50;100607.56;5057378;28;20032;-84
2021/07/29 06:56:25;;;;;;;5.78;2.13;;;;;;;18.67;68.29;100605.72;5077392;28;20405;-82
2021/07/29 06:58:51;;;;;;;10.98;2.25;;;;;;;18.78;68.22;100611.44;5081362;28;20040;-83
2021/07/29 07:01:17;;;;;;;5.63;1.95;;;;;;;19.03;66.71;100609.03;5060431;28;20513;-82
2021/07/29 07:03:43;;;;;;;11.65;1.83;;;;;;;19.40;64.29;100607.56;5063918;28;20040;-79
2021/07/29 07:06:09;;;;;;;8.88;2.20;;;;;;;19.35;63.88;100609.22;5081033;28;20031;-81
2021/07/29 07:08:35;;;;;;;8.70;2.00;;;;;;;19.23;63.07;100601.88;5097501;28;20035;-82
2021/07/29 07:11:00;;;;;;;11.30;1.92;;;;;;;19.26;61.04;100612.06;5078519;28;20031;-82
2021/07/29 07:13:26;;;;;;;6.82;1.65;;;;;;;19.44;63.13;100624.75;5106348;28;20073;-82
2021/07/29 07:15:53;;;;;;;4.53;1.52;;;;;;;19.50;62.39;100620.44;5093755;28;20023;-79
2021/07/29 07:18:19;;;;;;;3.80;1.40;;;;;;;19.64;61.66;100619.34;5079377;28;20046;-82
2021/07/29 07:20:44;;;;;;;6.38;1.95;;;;;;;19.79;62.08;100629.78;5096354;28;20575;-81
2021/07/29 07:23:10;;;;;;;7.97;1.88;;;;;;;19.72;61.12;100613.03;5103831;28;20028;-77
2021/07/29 07:25:36;;;;;;;6.10;1.50;;;;;;;19.68;59.88;100626.94;5081386;28;20094;-82
2021/07/29 07:28:03;;;;;;;7.63;1.58;;;;;;;19.69;61.26;100618.75;5088030;28;20492;-80
2021/07/29 07:30:28;;;;;;;4.63;1.50;;;;;;;19.75;62.67;100599.28;5092716;28;20112;-80
2021/07/29 07:32:54;;;;;;;6.40;1.80;;;;;;;19.72;63.74;100614.81;5054715;28;20123;-81
2021/07/29 07:35:19;;;;;;;4.78;1.42;;;;;;;19.45;61.14;100623.69;5062903;28;20066;-83
2021/07/29 07:37:45;;;;;;;5.13;1.42;;;;;;;19.62;61.35;100626.72;5062725;28;20053;-84
2021/07/29 07:40:11;;;;;;;4.75;1.70;;;;;;;19.86;59.64;100615.66;5096412;28;20038;-77
2021/07/29 07:42:37;;;;;;;5.45;1.52;;;;;;;19.92;59.88;100612.13;5063116;28;20031;-81
2021/07/29 07:45:03;;;;;;;6.07;1.95;;;;;;;20.00;61.63;100602.06;5063050;28;20394;-80
2021/07/29 07:47:29;;;;;;;5.18;1.40;;;;;;;20.33;57.60;100619.72;5062370;28;20462;-78
2021/07/29 07:49:55;;;;;;;4.88;1.42;;;;;;;20.08;58.63;100622.31;5092952;28;20032;-82
2021/07/29 07:52:21;;;;;;;5.32;1.45;;;;;;;19.90;58.90;100614.19;5061883;28;20035;-81
2021/07/29 07:54:47;;;;;;;5.88;1.75;;;;;;;19.94;58.88;100620.72;5062608;28;20027;-80
2021/07/29 07:57:12;;;;;;;3.20;1.38;;;;;;;19.88;58.68;100619.72;5063062;28;20031;-81
2021/07/29 07:59:38;;;;;;;5.47;1.55;;;;;;;20.10;57.95;100616.75;5058006;28;20034;-83
2021/07/29 08:02:05;;;;;;;10.68;1.73;;;;;;;19.86;58.64;100626.28;5069501;28;20032;-78
2021/07/29 08:04:30;;;;;;;6.63;1.40;;;;;;;19.52;61.26;100626.34;5098740;28;20053;-79
2021/07/29 08:06:56;;;;;;;7.68;1.90;;;;;;;19.06;65.54;100632.53;5119738;27;20517;-83
2021/07/29 08:09:21;;;;;;;6.25;1.42;;;;;;;18.51;69.05;100627.38;5059877;28;20044;-80
2021/07/29 08:11:47;;;;;;;12.85;2.08;;;;;;;18.26;69.53;100627.91;5062451;28;20096;-81
2021/07/29 08:14:12;;;;;;;6.55;1.75;;;;;;;18.10;70.92;100620.31;5095480;28;20473;-81
2021/07/29 08:16:38;;;;;;;4.38;1.80;;;;;;;18.25;71.04;100628.94;5079163;28;20042;-83
2021/07/29 08:19:04;;;;;;;5.22;2.00;;;;;;;18.21;71.56;100618.91;5061828;28;20069;-81
2021/07/29 08:21:30;;;;;;;6.28;1.80;;;;;;;18.18;71.56;100619.34;5094091;28;20091;-85
2021/07/29 08:23:55;;;;;;;5.72;1.63;;;;;;;18.12;68.38;100623.59;5094819;28;20039;-81
2021/07/29 08:26:21;;;;;;;4.53;1.70;;;;;;;18.50;67.03;100625.75;5062590;28;20092;-81
2021/07/29 08:28:47;;;;;;;5.88;1.60;;;;;;;19.18;64.16;100612.31;5100250;28;20401;-81
2021/07/29 08:31:13;;;;;;;10.50;1.83;;;;;;;19.73;60.78;100622.63;5067120;28;20050;-81
2021/07/29 08:33:40;;;;;;;4.78;1.33;;;;;;;20.27;58.66;100622.41;5066791;28;20035;-80
2021/07/29 08:36:12;;;;;;;4.72;1.30;;;;;;;20.84;58.54;100625.16;5084014;28;20059;-79
2021/07/29 08:38:37;;;;;;;7.47;1.30;;;;;;;21.13;56.76;100629.00;5085936;28;20047;-82
2021/07/29 08:41:03;;;;;;;7.82;1.48;;;;;;;21.14;56.12;100633.28;5099877;28;20028;-87
2021/07/29 08:43:31;;;;;;;4.30;1.02;;;;;;;21.36;55.22;100625.69;5094909;28;20042;-81
2021/07/29 08:45:56;;;;;;;4.90;1.45;;;;;;;21.44;54.89;100616.59;5094602;28;20486;-80
2021/07/29 08:48:26;;;;;;;7.53;1.60;;;;;;;21.53;55.19;100632.13;5061710;28;20044;-82
2021/07/29 08:50:55;;;;;;;7.00;1.55;;;;;;;21.57;55.69;100622.63;5061280;28;20027;-82
2021/07/29 08:53:21;;;;;;;3.72;1.20;;;;;;;21.05;54.28;100627.41;5094964;28;20542;-82
2021/07/29 08:55:49;;;;;;;5.53;1.20;;;;;;;20.56;56.43;100626.34;5077920;28;20489;-80
2021/07/29 08:58:14;;;;;;;4.47;1.17;;;;;;;20.12;57.75;100626.19;5077619;28;20042;-83
2021/07/29 09:00:57;;;;;;;6.47;1.38;;;;;;;19.90;58.38;100624.84;5078028;28;20040;-82
2021/07/29 09:03:26;;;;;;;2.80;1.25;;;;;;;20.31;57.35;100621.78;5077622;28;20031;-80
2021/07/29 09:05:59;;;;;;;13.27;1.40;;;;;;;20.92;54.07;100620.34;5060120;28;20409;-81
2021/07/29 09:08:25;;;;;;;2.85;1.00;;;;;;;21.38;52.11;100623.63;5098251;28;20032;-82
2021/07/29 09:10:50;;;;;;;7.00;1.30;;;;;;;21.83;50.81;100628.72;5093655;28;20023;-82
2021/07/29 09:13:18;;;;;;;4.28;1.25;;;;;;;21.80;50.59;100631.00;5084756;28;20035;-83
2021/07/29 09:15:45;;;;;;;4.88;1.05;;;;;;;21.24;52.25;100641.59;5072958;28;20032;-84
2021/07/29 09:18:17;;;;;;;5.50;1.05;;;;;;;21.01;53.39;100644.88;5074432;28;20131;-82
2021/07/29 09:20:43;;;;;;;5.40;1.20;;;;;;;20.75;52.71;100627.25;5043094;28;20032;-82
2021/07/29 09:23:16;;;;;;;2.17;1.05;;;;;;;20.73;50.05;100631.97;5073946;28;20055;-82
2021/07/29 09:25:43;;;;;;;5.55;1.00;;;;;;;20.31;51.20;100631.63;5057109;28;20028;-81
2021/07/29 09:28:08;;;;;;;6.55;0.90;;;;;;;20.08;53.46;100634.78;5076079;28;20122;-81
2021/07/29 09:30:35;;;;;;;4.78;0.98;;;;;;;20.03;54.00;100620.28;5087696;28;20666;-82
2021/07/29 09:33:05;;;;;;;2.50;1.17;;;;;;;20.23;54.31;100627.34;5061037;28;20092;-79
2021/07/29 09:35:52;;;;;;;4.13;1.42;;;;;;;20.32;52.00;100636.72;5075871;28;20104;-81
2021/07/29 09:38:29;;;;;;;3.75;1.05;;;;;;;20.14;54.96;100628.63;5077045;28;20074;-82
2021/07/29 09:40:59;;;;;;;8.68;1.30;;;;;;;19.96;55.59;100632.78;5082170;28;20036;-81
2021/07/29 09:43:30;;;;;;;7.57;1.35;;;;;;;19.85;55.55;100636.09;5061306;28;20032;-83
2021/07/29 09:45:57;;;;;;;5.35;1.20;;;;;;;19.90;54.53;100630.16;5077862;28;20028;-82
2021/07/29 09:48:23;;;;;;;5.22;1.25;;;;;;;20.67;54.21;100628.34;5077497;28;20105;-81
2021/07/29 09:50:51;;;;;;;8.40;1.13;;;;;;;21.43;52.02;100622.97;5076844;28;20065;-83
2021/07/29 09:53:17;;;;;;;4.05;1.20;;;;;;;21.46;50.49;100642.03;5055076;28;20055;-81
2021/07/29 09:55:42;;;;;;;4.18;1.10;;;;;;;21.02;50.96;100635.03;5090931;28;20869;-83
2021/07/29 09:58:08;;;;;;;7.05;1.00;;;;;;;20.64;51.69;100628.75;5068158;28;20040;-82
2021/07/29 10:00:35;;;;;;;6.25;1.10;;;;;;;20.51;52.38;100642.13;5060556;28;20115;-80
2021/07/29 10:03:06;;;;;;;4.38;1.08;;;;;;;20.33;53.09;100641.03;5077245;28;20463;-79
2021/07/29 10:05:52;;;;;;;3.70;1.00;;;;;;;20.76;53.65;100636.91;5094399;28;20055;-81
2021/07/29 10:08:26;;;;;;;4.05;1.20;;;;;;;20.85;51.00;100643.59;5076418;28;20035;-82
2021/07/29 10:10:52;;;;;;;5.05;1.10;;;;;;;20.65;53.08;100643.72;5052441;28;20054;-81
2021/07/29 10:13:18;;;;;;;9.00;1.23;;;;;;;20.32;54.50;100657.22;5060054;28;20509;-82
2021/07/29 10:15:45;;;;;;;9.40;1.25;;;;;;;20.64;53.45;100643.94;5078184;28;20034;-82
2021/07/29 10:18:13;;;;;;;6.18;1.10;;;;;;;21.47;50.23;100664.19;5074389;28;20094;-80
2021/07/29 10:20:41;;;;;;;8.40;1.02;;;;;;;22.05;47.42;100641.59;5074911;28;20105;-84
2021/07/29 10:23:12;;;;;;;10.23;1.20;;;;;;;22.43;46.36;100654.66;5051662;28;20038;-81
2021/07/29 10:25:53;;;;;;;3.20;1.20;;;;;;;23.08;45.14;100661.13;5049681;28;20055;-83
2021/07/29 10:28:31;;;;;;;3.70;1.00;;;;;;;22.84;44.81;100647.69;5059153;28;20108;-81
2021/07/29 10:30:58;;;;;;;4.70;1.23;;;;;;;22.17;47.60;100655.81;5077582;28;20023;-79
2021/07/29 10:33:25;;;;;;;6.50;1.17;;;;;;;21.51;47.89;100652.88;5115792;28;20031;-83
2021/07/29 10:35:51;;;;;;;4.38;1.10;;;;;;;21.09;49.14;100647.28;5098187;28;20417;-81
2021/07/29 10:38:39;;;;;;;6.18;1.20;;;;;;;20.89;50.48;100654.63;5065867;28;20104;-82
2021/07/29 10:41:10;;;;;;;5.03;1.00;;;;;;;20.59;50.13;100657.88;5061077;28;20037;-82
2021/07/29 10:43:37;;;;;;;7.88;1.52;;;;;;;20.31;51.85;100650.25;5059086;28;20394;-81
2021/07/29 10:46:03;;;;;;;5.82;1.23;;;;;;;20.20;53.70;100657.06;5095315;28;20036;-82
2021/07/29 10:48:41;;;;;;;4.93;1.10;;;;;;;20.33;52.64;100662.31;5097484;28;20032;-84
2021/07/29 10:51:14;;;;;;;5.32;1.13;;;;;;;20.43;51.64;100649.34;5097570;28;20500;-83
2021/07/29 10:53:41;;;;;;;8.00;1.20;;;;;;;20.54;50.13;100650.53;5064537;28;20059;-82
2021/07/29 10:56:12;;;;;;;4.47;1.33;;;;;;;20.90;52.15;100649.06;5078206;28;20035;-84
2021/07/29 10:58:39;;;;;;;4.65;1.30;;;;;;;21.55;48.61;100659.41;5080706;28;20039;-85
2021/07/29 11:01:05;;;;;;;3.35;1.10;;;;;;;21.42;47.85;100661.34;5087162;28;20036;-81
2021/07/29 11:04:00;;;;;;;4.25;1.30;;;;;;;20.96;50.77;100656.22;5087039;28;20050;-84
2021/07/29 11:06:36;;;;;;;11.63;1.30;;;;;;;20.65;51.19;100666.91;5065234;28;20024;-85
2021/07/29 11:09:30;;;;;;;4.45;1.30;;;;;;;20.29;53.15;100670.97;5102922;28;20480;-84
2021/07/29 11:11:56;;;;;;;6.40;1.05;;;;;;;20.20;57.44;100668.53;5064657;28;20119;-83
2021/07/29 11:14:35;;;;;;;5.47;1.60;;;;;;;20.31;58.24;100669.72;5086458;28;20061;-83
2021/07/29 11:17:03;;;;;;;3.83;1.20;;;;;;;20.41;56.03;100669.25;5087073;28;20670;-83
2021/07/29 11:19:29;;;;;;;5.28;1.23;;;;;;;20.38;55.41;100661.66;5065907;28;20028;-83
2021/07/29 11:22:03;;;;;;;6.97;1.20;;;;;;;20.22;57.16;100671.78;5059367;28;20694;-84
2021/07/29 11:24:30;;;;;;;3.55;1.10;;;;;;;20.01;58.46;100677.41;5079911;28;20504;-83